createdAt,value
2023-03-15T00:00:37.519Z,1.30
2023-03-15T00:03:05.571Z,1.40
2023-03-15T00:05:32.804Z,1.05
2023-03-15T00:08:00.103Z,1.30
2023-03-15T00:10:27.343Z,1.60
2023-03-15T00:12:54.651Z,1.45
2023-03-15T00:15:21.871Z,1.13
2023-03-15T00:17:49.104Z,1.60
2023-03-15T00:20:16.437Z,1.00
2023-03-15T00:22:43.782Z,1.10
2023-03-15T00:25:11.029Z,1.23
2023-03-15T00:27:38.296Z,1.27
2023-03-15T00:30:05.727Z,0.93
2023-03-15T00:32:33.027Z,0.98
2023-03-15T00:35:01.742Z,0.98
2023-03-15T00:37:28.995Z,1.20
2023-03-15T00:39:56.240Z,1.02
2023-03-15T00:42:27.458Z,0.98
2023-03-15T00:44:55.926Z,0.80
2023-03-15T00:47:23.595Z,1.10
2023-03-15T00:49:50.991Z,1.30
2023-03-15T00:52:19.035Z,1.10
2023-03-15T00:54:52.281Z,1.27
2023-03-15T00:57:19.861Z,0.80
2023-03-15T00:59:47.107Z,0.77
2023-03-15T01:02:14.591Z,0.98
2023-03-15T01:04:41.843Z,0.85
2023-03-15T01:07:09.124Z,0.80
2023-03-15T01:09:36.413Z,0.93
2023-03-15T01:12:03.700Z,0.95
2023-03-15T01:14:31.020Z,1.25
2023-03-15T01:16:58.223Z,1.02
2023-03-15T01:19:25.472Z,0.90
2023-03-15T01:21:53.268Z,0.77
2023-03-15T01:24:20.453Z,1.30
2023-03-15T01:26:47.673Z,0.85
2023-03-15T01:29:15.035Z,1.42
2023-03-15T01:31:42.273Z,3.38
2023-03-15T01:34:09.924Z,1.45
2023-03-15T01:36:37.137Z,1.30
2023-03-15T01:39:04.414Z,1.52
2023-03-15T01:41:31.607Z,1.60
2023-03-15T01:43:58.855Z,1.70
2023-03-15T01:46:35.257Z,1.40
2023-03-15T01:49:12.510Z,2.45
2023-03-15T01:51:43.928Z,1.92
2023-03-15T01:54:20.535Z,2.03
2023-03-15T01:56:55.832Z,2.40
2023-03-15T01:59:24.621Z,2.03
2023-03-15T02:01:54.491Z,2.63
2023-03-15T02:04:25.026Z,2.47
2023-03-15T02:06:59.409Z,3.58
2023-03-15T02:09:28.734Z,3.53
2023-03-15T02:11:56.010Z,2.45
2023-03-15T02:14:23.226Z,2.93
2023-03-15T02:16:53.466Z,3.43
2023-03-15T02:19:29.886Z,3.60
2023-03-15T02:22:20.176Z,3.50
2023-03-15T02:24:56.665Z,3.25
2023-03-15T02:27:26.777Z,3.92
2023-03-15T02:29:54.053Z,3.53
2023-03-15T02:32:21.318Z,3.55
2023-03-15T02:34:48.623Z,3.20
2023-03-15T02:37:15.964Z,3.13
2023-03-15T02:39:43.197Z,3.23
2023-03-15T02:42:11.017Z,3.37
2023-03-15T02:44:38.427Z,3.30
2023-03-15T02:47:06.757Z,3.60
2023-03-15T02:49:35.913Z,3.10
2023-03-15T02:52:03.113Z,3.15
2023-03-15T02:54:34.243Z,2.97
2023-03-15T02:57:02.314Z,3.20
2023-03-15T02:59:29.586Z,3.60
2023-03-15T03:01:57.132Z,4.20
2023-03-15T03:04:24.373Z,3.42
2023-03-15T03:06:51.598Z,2.83
2023-03-15T03:09:18.961Z,2.78
2023-03-15T03:11:46.198Z,3.45
2023-03-15T03:14:16.300Z,2.78
2023-03-15T03:16:43.671Z,3.00
2023-03-15T03:19:12.633Z,2.50
2023-03-15T03:21:39.914Z,3.10
2023-03-15T03:24:07.283Z,2.92
2023-03-15T03:26:34.516Z,3.20
2023-03-15T03:29:01.728Z,3.08
2023-03-15T03:31:29.160Z,3.97
2023-03-15T03:33:56.988Z,3.50
2023-03-15T03:36:24.984Z,3.55
2023-03-15T03:38:52.245Z,3.67
2023-03-15T03:41:19.482Z,3.85
2023-03-15T03:43:46.686Z,3.03
2023-03-15T03:46:13.930Z,3.57
2023-03-15T03:48:41.152Z,3.70
2023-03-15T03:51:08.405Z,3.37
2023-03-15T03:53:35.625Z,3.60
2023-03-15T03:56:04.770Z,3.53
2023-03-15T03:58:32.044Z,4.18
2023-03-15T04:00:59.286Z,3.90
2023-03-15T04:03:29.290Z,4.20
2023-03-15T04:05:56.883Z,3.95
2023-03-15T04:08:24.388Z,3.75
2023-03-15T04:10:55.107Z,3.70
2023-03-15T04:13:22.676Z,3.80
2023-03-15T04:15:49.940Z,4.20
2023-03-15T04:18:17.315Z,3.53
2023-03-15T04:20:46.894Z,3.30
2023-03-15T04:23:14.778Z,4.35
2023-03-15T04:25:42.141Z,4.20
2023-03-15T04:28:10.728Z,4.50
2023-03-15T04:30:38.139Z,3.60
2023-03-15T04:33:05.382Z,4.03
2023-03-15T04:35:35.667Z,3.30
2023-03-15T04:38:04.156Z,3.30
2023-03-15T04:40:35.014Z,3.47
2023-03-15T04:43:03.472Z,3.60
2023-03-15T04:45:31.618Z,3.38
2023-03-15T04:47:58.920Z,3.92
2023-03-15T04:50:26.174Z,3.63
2023-03-15T04:52:53.486Z,3.90
2023-03-15T04:55:20.757Z,3.47
2023-03-15T04:57:47.994Z,2.72
2023-03-15T05:00:15.367Z,2.83
2023-03-15T05:02:42.631Z,3.50
2023-03-15T05:05:10.071Z,3.00
2023-03-15T05:07:37.568Z,2.20
2023-03-15T05:10:05.225Z,1.95
2023-03-15T05:12:33.741Z,2.30
2023-03-15T05:15:01.136Z,2.30
2023-03-15T05:17:28.370Z,2.53
2023-03-15T05:19:55.620Z,2.53
2023-03-15T05:22:25.677Z,1.83
2023-03-15T05:24:55.708Z,2.17
2023-03-15T05:27:23.426Z,2.20
2023-03-15T05:29:51.428Z,2.28
2023-03-15T05:32:18.691Z,2.25
2023-03-15T05:34:45.919Z,2.28
2023-03-15T05:37:13.162Z,2.67
2023-03-15T05:39:42.469Z,2.65
2023-03-15T05:42:09.819Z,3.17
2023-03-15T05:44:39.841Z,3.35
2023-03-15T05:47:07.158Z,3.55
2023-03-15T05:49:34.366Z,3.65
2023-03-15T05:52:01.750Z,2.90
2023-03-15T05:54:29.009Z,3.28
2023-03-15T05:56:56.392Z,3.05
2023-03-15T05:59:23.689Z,3.30
2023-03-15T06:01:50.893Z,3.40
2023-03-15T06:04:18.178Z,3.13
2023-03-15T06:06:45.424Z,2.70
2023-03-15T06:09:12.808Z,3.27
2023-03-15T06:11:41.954Z,3.38
2023-03-15T06:14:09.193Z,3.22
2023-03-15T06:16:36.490Z,3.25
2023-03-15T06:19:04.310Z,3.10
2023-03-15T06:21:31.584Z,3.60
2023-03-15T06:23:58.809Z,3.05
2023-03-15T06:26:26.073Z,3.20
2023-03-15T06:28:53.351Z,2.97
2023-03-15T06:31:20.567Z,2.85
2023-03-15T06:33:47.920Z,2.47
2023-03-15T06:36:15.417Z,2.70
2023-03-15T06:38:42.910Z,3.42
2023-03-15T06:41:12.452Z,2.53
2023-03-15T06:43:43.690Z,2.20
2023-03-15T06:46:10.946Z,2.53
2023-03-15T06:48:38.200Z,2.60
2023-03-15T06:51:05.932Z,2.90
2023-03-15T06:53:33.424Z,2.63
2023-03-15T06:56:00.682Z,2.85
2023-03-15T06:58:27.934Z,2.83
2023-03-15T07:00:55.206Z,2.30
2023-03-15T07:03:23.700Z,2.22
2023-03-15T07:05:54.705Z,2.20
2023-03-15T07:08:22.615Z,3.08
2023-03-15T07:10:50.459Z,2.88
2023-03-15T07:13:17.998Z,2.40
2023-03-15T07:15:45.341Z,2.45
2023-03-15T07:18:12.566Z,2.40
2023-03-15T07:20:39.809Z,3.25
2023-03-15T07:23:08.410Z,2.53
2023-03-15T07:25:48.192Z,2.47
2023-03-15T07:28:19.584Z,2.33
2023-03-15T07:31:13.210Z,3.00
2023-03-15T07:33:40.514Z,2.93
2023-03-15T07:36:08.121Z,2.47
2023-03-15T07:38:35.506Z,2.20
2023-03-15T07:41:03.149Z,2.30
2023-03-15T07:43:30.510Z,2.00
2023-03-15T07:45:57.782Z,1.90
2023-03-15T07:48:25.008Z,2.13
2023-03-15T07:50:52.538Z,2.27
2023-03-15T07:53:19.799Z,2.00
2023-03-15T07:55:48.064Z,1.98
2023-03-15T07:58:15.373Z,1.75
2023-03-15T08:00:42.743Z,2.03
2023-03-15T08:03:10.118Z,2.38
2023-03-15T08:05:37.421Z,1.80
2023-03-15T08:08:04.867Z,1.55
2023-03-15T08:10:32.152Z,1.75
2023-03-15T08:12:59.381Z,1.77
2023-03-15T08:15:26.672Z,1.63
2023-03-15T08:17:53.905Z,2.00
2023-03-15T08:20:21.243Z,1.88
2023-03-15T08:22:48.670Z,1.50
2023-03-15T08:25:16.653Z,1.42
2023-03-15T08:27:44.151Z,1.80
2023-03-15T08:30:15.073Z,1.38
2023-03-15T08:32:45.829Z,1.50
2023-03-15T08:35:15.496Z,1.75
2023-03-15T08:37:47.875Z,1.63
2023-03-15T08:40:15.991Z,1.20
2023-03-15T08:42:43.244Z,1.25
2023-03-15T08:45:11.344Z,1.40
2023-03-15T08:47:38.610Z,1.35
2023-03-15T08:50:07.059Z,1.30
2023-03-15T08:52:34.267Z,1.35
2023-03-15T08:55:01.666Z,1.13
2023-03-15T08:57:30.151Z,1.00
2023-03-15T08:59:57.683Z,0.98
2023-03-15T09:02:25.259Z,1.15
2023-03-15T09:04:53.581Z,1.30
2023-03-15T09:07:22.536Z,1.10
2023-03-15T09:09:49.853Z,1.65
2023-03-15T09:12:17.346Z,0.93
2023-03-15T09:14:44.721Z,1.48
2023-03-15T09:17:12.059Z,2.10
2023-03-15T09:19:40.167Z,1.38
2023-03-15T09:22:16.868Z,1.45
2023-03-15T09:24:52.622Z,1.80
2023-03-15T09:27:19.962Z,1.15
2023-03-15T09:29:47.232Z,1.97
2023-03-15T09:32:14.983Z,1.60
2023-03-15T09:34:42.508Z,1.35
2023-03-15T09:37:09.905Z,1.35
2023-03-15T09:39:37.104Z,1.60
2023-03-15T09:42:06.442Z,2.22
2023-03-15T09:44:33.893Z,1.52
2023-03-15T09:47:19.869Z,1.33
2023-03-15T09:49:52.259Z,1.80
2023-03-15T09:52:25.512Z,1.80
2023-03-15T09:54:54.067Z,1.80
2023-03-15T09:57:25.146Z,1.50
2023-03-15T09:59:53.427Z,1.10
2023-03-15T10:02:24.210Z,0.82
2023-03-15T10:05:01.948Z,1.05
2023-03-15T10:07:29.212Z,1.77
2023-03-15T10:09:58.968Z,1.52
2023-03-15T10:12:41.278Z,1.90
2023-03-15T10:15:23.875Z,1.65
2023-03-15T10:18:00.199Z,1.27
2023-03-15T10:20:28.246Z,1.00
2023-03-15T10:23:06.731Z,1.02
2023-03-15T10:25:34.063Z,0.95
2023-03-15T10:28:02.264Z,1.10
2023-03-15T10:30:30.305Z,0.75
2023-03-15T10:33:01.353Z,0.60
2023-03-15T10:35:28.739Z,1.17
2023-03-15T10:37:56.051Z,0.60
2023-03-15T10:40:39.218Z,0.93
2023-03-15T10:43:19.730Z,0.63
2023-03-15T10:46:05.880Z,0.65
2023-03-15T10:48:34.007Z,0.45
2023-03-15T10:51:17.922Z,0.52
2023-03-15T10:54:06.193Z,0.70
2023-03-15T10:56:36.202Z,0.90
2023-03-15T10:59:12.254Z,0.57
2023-03-15T11:01:40.387Z,0.65
2023-03-15T11:04:13.686Z,0.50
2023-03-15T11:06:45.664Z,0.55
2023-03-15T11:09:22.231Z,0.55
2023-03-15T11:11:50.499Z,0.60
2023-03-15T11:14:18.635Z,0.52
2023-03-15T11:16:50.174Z,0.63
2023-03-15T11:19:18.232Z,0.60
2023-03-15T11:21:45.438Z,1.00
2023-03-15T11:24:20.756Z,0.90
2023-03-15T11:26:52.200Z,1.30
2023-03-15T11:29:28.801Z,1.15
2023-03-15T11:31:56.237Z,1.05
2023-03-15T11:34:23.477Z,0.70
2023-03-15T11:37:05.381Z,0.88
2023-03-15T11:39:37.701Z,1.00
2023-03-15T11:42:06.943Z,0.68
2023-03-15T11:45:00.728Z,0.93
2023-03-15T11:47:43.612Z,0.90
2023-03-15T11:50:12.899Z,0.90
2023-03-15T11:52:40.225Z,1.00
2023-03-15T11:55:08.060Z,1.10
2023-03-15T11:57:42.656Z,0.80
2023-03-15T12:00:18.309Z,0.90
2023-03-15T12:02:49.224Z,0.63
2023-03-15T12:05:35.085Z,0.80
2023-03-15T12:08:17.110Z,1.00
2023-03-15T12:10:46.698Z,1.30
2023-03-15T12:13:30.019Z,0.50
2023-03-15T12:15:57.267Z,0.70
2023-03-15T12:18:29.144Z,0.52
2023-03-15T12:20:59.401Z,0.70
2023-03-15T12:23:31.389Z,0.60
2023-03-15T12:26:07.716Z,0.82
2023-03-15T12:28:44.109Z,0.85
2023-03-15T12:31:14.804Z,0.80
2023-03-15T12:33:49.245Z,0.70
2023-03-15T12:36:39.777Z,0.60
2023-03-15T12:39:16.189Z,0.60
2023-03-15T12:41:50.392Z,0.60
2023-03-15T14:46:09.271Z,0.70
2023-03-15T14:48:36.716Z,0.53
2023-03-15T14:51:03.963Z,0.80
2023-03-15T14:53:35.121Z,0.70
2023-03-15T14:56:03.458Z,1.13
2023-03-15T14:58:30.815Z,0.90
2023-03-15T15:00:58.270Z,1.07
2023-03-15T15:03:38.629Z,0.60
2023-03-15T15:06:06.386Z,1.80
2023-03-15T15:08:33.684Z,0.80
2023-03-15T15:11:01.261Z,0.60
2023-03-15T15:13:29.487Z,0.60
2023-03-15T15:15:57.215Z,1.30
2023-03-15T15:18:25.159Z,0.80
2023-03-15T15:20:55.328Z,0.93
2023-03-15T15:23:23.348Z,0.50
2023-03-15T15:25:51.094Z,0.63
2023-03-15T15:28:33.277Z,0.80
2023-03-15T15:31:01.638Z,0.90
2023-03-15T15:33:28.888Z,0.70
2023-03-15T15:35:56.545Z,0.90
2023-03-15T15:38:38.118Z,0.80
2023-03-15T15:41:05.613Z,0.60
2023-03-15T15:43:33.754Z,0.70
2023-03-15T15:46:01.893Z,0.40
2023-03-15T15:48:29.237Z,0.40
2023-03-15T15:50:56.439Z,0.60
2023-03-15T15:53:23.692Z,0.80
2023-03-15T15:55:50.934Z,0.65
2023-03-15T15:58:18.226Z,0.75
2023-03-15T16:00:45.441Z,0.70
2023-03-15T16:03:15.949Z,0.40
2023-03-15T16:05:43.219Z,0.50
2023-03-15T16:08:13.456Z,0.63
2023-03-15T16:10:40.758Z,0.40
2023-03-15T16:13:09.860Z,0.40
2023-03-15T16:15:37.106Z,0.22
2023-03-15T16:18:06.600Z,0.30
2023-03-15T16:20:33.868Z,0.40
2023-03-15T16:23:01.081Z,0.40
2023-03-15T16:25:29.277Z,0.60
2023-03-15T16:27:56.504Z,0.43
2023-03-15T16:30:24.665Z,0.50
2023-03-15T16:32:59.368Z,1.05
2023-03-15T16:35:35.999Z,2.20
2023-03-15T16:38:03.390Z,1.87
2023-03-15T16:40:31.629Z,1.93
2023-03-15T16:42:58.873Z,2.67
2023-03-15T16:45:26.271Z,1.07
2023-03-15T16:47:53.596Z,1.15
2023-03-15T16:50:20.891Z,1.75
2023-03-15T16:52:48.821Z,2.83
2023-03-15T16:55:16.530Z,1.60
2023-03-15T16:57:44.141Z,2.08
2023-03-15T17:00:12.613Z,2.10
2023-03-15T17:02:39.832Z,1.88
2023-03-15T17:05:07.260Z,1.77
2023-03-15T17:07:35.062Z,1.50
2023-03-15T17:10:05.016Z,1.17
2023-03-15T17:12:32.222Z,1.80
2023-03-15T17:14:59.478Z,1.33
2023-03-15T17:17:27.827Z,1.92
2023-03-15T17:19:55.100Z,1.10
2023-03-15T17:22:22.326Z,1.40
2023-03-15T17:24:49.590Z,1.30
2023-03-15T17:27:32.123Z,1.08
2023-03-15T17:29:59.440Z,1.30
2023-03-15T17:32:26.718Z,1.48
2023-03-15T17:34:58.746Z,1.17
2023-03-15T17:37:26.383Z,1.40
2023-03-15T17:39:53.938Z,1.00
2023-03-15T17:42:21.120Z,1.63
2023-03-15T17:44:48.336Z,1.00
2023-03-15T17:47:15.670Z,1.40
2023-03-15T17:49:42.869Z,1.70
2023-03-15T17:52:20.690Z,1.50
2023-03-15T17:54:48.233Z,1.58
2023-03-15T17:57:15.424Z,1.50
2023-03-15T17:59:42.663Z,1.85
2023-03-15T18:02:13.000Z,2.08
2023-03-15T18:04:40.282Z,1.90
2023-03-15T18:07:07.491Z,2.30
2023-03-15T18:09:34.757Z,2.33
2023-03-15T18:12:02.352Z,2.70
2023-03-15T18:14:30.964Z,2.33
2023-03-15T18:16:59.360Z,2.38
2023-03-15T18:19:27.101Z,2.88
2023-03-15T18:21:54.317Z,1.83
2023-03-15T18:24:21.564Z,2.17
2023-03-15T18:26:48.915Z,2.03
2023-03-15T18:29:16.146Z,2.40
2023-03-15T18:31:43.429Z,1.70
2023-03-15T18:34:15.168Z,1.80
2023-03-15T18:36:42.479Z,1.30
2023-03-15T18:39:09.829Z,1.63
2023-03-15T18:41:37.192Z,1.40
2023-03-15T18:44:04.417Z,2.00
2023-03-15T18:46:32.100Z,1.65
2023-03-15T18:48:59.488Z,1.00
2023-03-15T18:51:28.216Z,1.70
2023-03-15T18:53:55.729Z,1.65
2023-03-15T18:56:27.009Z,3.65
2023-03-15T18:58:54.878Z,3.47
2023-03-15T19:01:22.574Z,2.00
2023-03-15T19:03:50.297Z,4.72
2023-03-15T19:06:18.468Z,4.07
2023-03-15T19:08:45.684Z,1.73
2023-03-15T19:11:12.979Z,1.70
2023-03-15T19:13:40.237Z,1.55
2023-03-15T19:16:08.066Z,1.63
2023-03-15T19:18:35.530Z,1.60
2023-03-15T19:21:02.913Z,1.80
2023-03-15T19:23:30.287Z,1.30
2023-03-15T19:25:57.497Z,1.87
2023-03-15T19:28:24.677Z,2.17
2023-03-15T19:30:52.014Z,1.20
2023-03-15T19:33:19.261Z,1.40
2023-03-15T19:35:46.525Z,1.20
2023-03-15T19:38:13.745Z,1.30
2023-03-15T19:40:41.070Z,1.70
2023-03-15T19:43:10.184Z,1.50
2023-03-15T19:45:37.410Z,1.13
2023-03-15T19:48:04.632Z,1.90
2023-03-15T19:50:33.793Z,1.70
2023-03-15T19:53:01.056Z,1.50
2023-03-15T19:55:31.122Z,1.45
2023-03-15T19:57:59.055Z,1.00
2023-03-15T20:00:26.266Z,1.23
2023-03-15T20:02:53.549Z,2.03
2023-03-15T20:05:21.164Z,1.80
2023-03-15T20:07:50.666Z,1.40
2023-03-15T20:10:18.688Z,2.13
2023-03-15T20:12:47.135Z,1.60
2023-03-15T20:15:14.992Z,1.42
2023-03-15T20:17:42.235Z,1.80
2023-03-15T20:20:10.965Z,1.98
2023-03-15T20:22:41.064Z,1.70
2023-03-15T20:25:08.900Z,1.77
2023-03-15T20:27:36.267Z,1.63
2023-03-15T20:30:04.823Z,1.40
2023-03-15T20:32:32.110Z,2.03
2023-03-15T20:35:00.687Z,2.10
2023-03-15T20:37:28.455Z,1.88
2023-03-15T20:39:55.678Z,1.45
2023-03-15T20:42:23.080Z,2.03
2023-03-15T20:44:50.464Z,1.50
2023-03-15T20:47:17.639Z,1.58
2023-03-15T20:49:44.829Z,1.77
2023-03-15T20:52:12.084Z,1.67
2023-03-15T20:54:39.316Z,1.35
2023-03-15T20:57:07.171Z,1.80
2023-03-15T20:59:34.406Z,1.80
2023-03-15T21:02:02.951Z,1.90
2023-03-15T21:04:30.466Z,1.60
2023-03-15T21:07:04.059Z,1.52
2023-03-15T21:09:32.055Z,1.60
2023-03-15T21:11:59.744Z,1.58
2023-03-15T21:14:27.496Z,1.70
2023-03-15T21:16:54.940Z,1.58
2023-03-15T21:19:22.945Z,2.17
2023-03-15T21:21:50.175Z,1.63
2023-03-15T21:24:17.386Z,1.40
2023-03-15T21:26:48.481Z,1.60
2023-03-15T21:29:15.711Z,2.13
2023-03-15T21:31:43.112Z,1.58
2023-03-15T21:34:10.345Z,1.40
2023-03-15T21:36:37.602Z,1.90
2023-03-15T21:39:07.522Z,1.85
2023-03-15T21:41:34.962Z,1.50
2023-03-15T21:44:02.218Z,1.63
2023-03-15T21:46:29.498Z,1.73
2023-03-15T21:48:56.793Z,1.60
2023-03-15T21:51:24.035Z,1.80
2023-03-15T21:53:51.513Z,2.20
2023-03-15T21:56:18.741Z,1.98
2023-03-15T21:58:46.337Z,1.80
2023-03-15T22:01:16.801Z,1.88
2023-03-15T22:03:44.310Z,1.73
2023-03-15T22:06:13.075Z,2.03
2023-03-15T22:08:40.914Z,2.25
2023-03-15T22:11:08.117Z,1.80
2023-03-15T22:13:36.981Z,1.75
2023-03-15T22:16:05.080Z,1.58
2023-03-15T22:18:32.740Z,2.33
2023-03-15T22:20:59.996Z,1.10
2023-03-15T22:23:27.220Z,1.58
2023-03-15T22:25:55.526Z,1.55
2023-03-15T22:28:25.049Z,1.38
2023-03-15T22:30:52.513Z,1.80
2023-03-15T22:33:21.530Z,1.75
2023-03-15T22:35:54.136Z,2.08
2023-03-15T22:38:22.746Z,1.27
2023-03-15T22:40:49.998Z,2.78
2023-03-15T22:43:17.456Z,1.75
2023-03-15T22:45:44.716Z,1.95
2023-03-15T22:48:14.586Z,1.55
2023-03-15T22:50:41.963Z,1.65
2023-03-15T22:53:09.270Z,1.80
2023-03-15T22:55:36.542Z,2.00
2023-03-15T22:58:03.791Z,1.35
2023-03-15T23:00:31.054Z,1.90
2023-03-15T23:02:58.296Z,1.95
2023-03-15T23:05:25.507Z,1.55
2023-03-15T23:07:52.734Z,2.03
2023-03-15T23:10:26.310Z,2.13
2023-03-15T23:12:53.804Z,2.33
2023-03-15T23:15:21.006Z,1.80
2023-03-15T23:17:48.223Z,1.95
2023-03-15T23:20:16.002Z,2.30
2023-03-15T23:22:43.344Z,2.27
2023-03-15T23:25:11.066Z,2.17
2023-03-15T23:27:38.265Z,2.30
2023-03-15T23:30:06.202Z,2.88
2023-03-15T23:32:36.480Z,2.30
2023-03-15T23:35:07.319Z,1.83
2023-03-15T23:37:34.567Z,1.52
2023-03-15T23:40:02.010Z,1.83
2023-03-15T23:42:29.340Z,2.47
2023-03-15T23:44:56.596Z,2.35
2023-03-15T23:47:24.095Z,2.40
2023-03-15T23:49:51.370Z,2.10
2023-03-15T23:52:18.989Z,2.00
2023-03-15T23:54:46.236Z,1.90
2023-03-15T23:57:14.009Z,1.95
2023-03-15T23:59:44.176Z,2.20
